createdAt,value
2019-03-23T00:02:07.048Z,99.90
2019-03-23T00:04:44.446Z,99.90
2019-03-23T00:07:22.087Z,99.90
2019-03-23T00:09:59.508Z,99.90
2019-03-23T00:12:36.845Z,99.90
2019-03-23T00:15:14.328Z,99.90
2019-03-23T00:17:51.683Z,99.90
2019-03-23T00:20:30.389Z,99.90
2019-03-23T00:23:07.932Z,99.90
2019-03-23T00:25:45.347Z,99.90
2019-03-23T00:28:22.800Z,99.90
2019-03-23T00:31:00.142Z,99.90
2019-03-23T00:33:37.520Z,99.90
2019-03-23T00:36:14.924Z,99.90
2019-03-23T00:38:52.303Z,99.90
2019-03-23T00:41:29.677Z,99.90
2019-03-23T00:44:07.546Z,99.90
2019-03-23T00:46:45.027Z,99.90
2019-03-23T00:49:22.394Z,99.90
2019-03-23T00:51:59.619Z,99.90
2019-03-23T00:54:36.964Z,99.90
2019-03-23T00:57:14.321Z,99.90
2019-03-23T00:59:51.758Z,99.90
2019-03-23T01:02:29.156Z,99.90
2019-03-23T01:05:07.564Z,99.90
2019-03-23T01:07:44.927Z,99.90
2019-03-23T01:10:22.302Z,99.90
2019-03-23T01:12:59.790Z,99.90
2019-03-23T01:15:37.114Z,99.90
2019-03-23T01:18:14.715Z,99.90
2019-03-23T01:20:52.638Z,99.90
2019-03-23T01:23:29.968Z,99.90
2019-03-23T01:26:07.436Z,99.90
2019-03-23T01:28:44.932Z,99.90
2019-03-23T01:31:22.641Z,99.90
2019-03-23T01:33:59.786Z,99.90
2019-03-23T01:36:37.104Z,99.90
2019-03-23T01:39:14.416Z,99.90
2019-03-23T01:41:51.805Z,99.90
2019-03-23T01:44:29.215Z,99.90
2019-03-23T01:47:06.507Z,99.90
2019-03-23T01:49:43.912Z,99.90
2019-03-23T01:52:21.561Z,99.90
2019-03-23T01:54:59.300Z,99.90
2019-03-23T01:57:36.692Z,99.90
2019-03-23T02:00:14.260Z,99.90
2019-03-23T02:02:51.665Z,99.90
2019-03-23T02:05:29.081Z,99.90
2019-03-23T02:08:06.504Z,99.90
2019-03-23T02:10:43.867Z,99.90
2019-03-23T02:13:21.316Z,99.90
2019-03-23T02:15:58.603Z,99.90
2019-03-23T02:18:36.144Z,99.90
2019-03-23T02:21:13.576Z,99.90
2019-03-23T02:23:52.699Z,99.90
2019-03-23T02:26:33.080Z,99.90
2019-03-23T02:29:10.448Z,99.90
2019-03-23T02:31:47.948Z,99.90
2019-03-23T02:34:25.319Z,99.90
2019-03-23T02:37:02.863Z,99.90
2019-03-23T02:39:40.388Z,99.90
2019-03-23T02:42:17.710Z,99.90
2019-03-23T02:44:55.077Z,99.90
2019-03-23T02:47:32.421Z,99.90
2019-03-23T02:50:10.446Z,99.90
2019-03-23T02:52:47.857Z,99.90
2019-03-23T02:55:25.188Z,99.90
2019-03-23T02:58:02.559Z,99.90
2019-03-23T03:00:39.898Z,99.90
2019-03-23T03:03:17.397Z,99.90
2019-03-23T03:05:54.729Z,99.90
2019-03-23T03:08:32.148Z,99.90
2019-03-23T03:11:09.529Z,99.90
2019-03-23T03:13:47.093Z,99.90
2019-03-23T03:16:24.324Z,99.90
2019-03-23T03:19:01.762Z,99.90
2019-03-23T03:21:39.162Z,99.90
2019-03-23T03:24:16.706Z,99.90
2019-03-23T03:26:54.147Z,99.90
2019-03-23T03:29:31.507Z,99.90
2019-03-23T03:32:08.975Z,99.90
2019-03-23T03:34:46.298Z,99.90
2019-03-23T03:37:23.719Z,99.90
2019-03-23T03:40:01.065Z,99.90
2019-03-23T03:42:38.484Z,99.90
2019-03-23T03:45:25.582Z,99.90
2019-03-23T03:48:03.024Z,99.90
2019-03-23T03:50:41.286Z,99.90
2019-03-23T03:53:20.331Z,99.90
2019-03-23T03:55:57.619Z,99.90
2019-03-23T03:58:35.077Z,99.90
2019-03-23T04:01:12.301Z,99.90
2019-03-23T04:03:49.838Z,99.90
2019-03-23T04:06:27.176Z,99.90
2019-03-23T04:09:06.475Z,99.90
2019-03-23T04:11:43.738Z,99.90
2019-03-23T04:14:21.164Z,99.90
2019-03-23T04:16:59.071Z,99.90
2019-03-23T04:19:36.535Z,99.90
2019-03-23T04:22:14.001Z,99.90
2019-03-23T04:24:51.422Z,99.90
2019-03-23T04:27:28.855Z,99.90
2019-03-23T04:30:07.592Z,99.90
2019-03-23T04:32:44.950Z,99.90
2019-03-23T04:35:22.584Z,99.90
2019-03-23T04:37:59.952Z,99.90
2019-03-23T04:40:37.374Z,99.90
2019-03-23T04:43:14.788Z,99.90
2019-03-23T04:45:52.172Z,99.90
2019-03-23T04:48:29.566Z,99.90
2019-03-23T04:51:07.044Z,99.90
2019-03-23T04:53:44.357Z,99.90
2019-03-23T04:56:21.765Z,99.90
2019-03-23T04:58:59.226Z,99.90
2019-03-23T05:01:36.717Z,99.90
2019-03-23T05:04:14.056Z,99.90
2019-03-23T05:06:51.382Z,99.90
2019-03-23T05:09:28.737Z,99.90
2019-03-23T05:12:06.073Z,99.90
2019-03-23T05:14:43.569Z,99.90
2019-03-23T05:17:27.066Z,99.90
2019-03-23T05:20:09.341Z,99.90
2019-03-23T05:22:46.724Z,99.90
2019-03-23T05:25:26.112Z,99.90
2019-03-23T05:28:04.996Z,99.90
2019-03-23T05:30:42.394Z,99.90
2019-03-23T05:33:19.626Z,99.90
2019-03-23T05:35:56.947Z,99.90
2019-03-23T05:38:43.983Z,99.90
2019-03-23T05:41:13.171Z,99.90
2019-03-23T05:43:50.340Z,99.90
2019-03-23T05:46:27.700Z,99.90
2019-03-23T05:49:04.992Z,99.90
2019-03-23T05:51:42.256Z,99.90
2019-03-23T05:54:19.440Z,99.90
2019-03-23T05:56:56.601Z,99.90
2019-03-23T05:59:33.880Z,99.90
2019-03-23T06:02:11.357Z,99.90
2019-03-23T06:04:49.012Z,99.90
2019-03-23T06:07:26.331Z,99.90
2019-03-23T06:10:05.076Z,99.90
2019-03-23T06:12:42.443Z,99.90
2019-03-23T06:15:19.929Z,99.90
2019-03-23T06:17:57.159Z,99.90
2019-03-23T06:20:34.687Z,99.90
2019-03-23T06:23:11.914Z,99.90
2019-03-23T06:25:49.270Z,99.90
2019-03-23T06:28:26.580Z,99.90
2019-03-23T06:31:03.837Z,99.90
2019-03-23T06:33:41.016Z,99.90
2019-03-23T06:36:18.293Z,99.90
2019-03-23T06:39:05.153Z,99.90
2019-03-23T06:41:34.558Z,99.90
2019-03-23T06:44:11.880Z,99.90
2019-03-23T06:46:49.209Z,99.90
2019-03-23T06:49:26.664Z,99.90
2019-03-23T06:52:03.979Z,99.90
2019-03-23T06:54:41.292Z,99.90
2019-03-23T06:57:18.712Z,99.90
2019-03-23T06:59:55.886Z,99.90
2019-03-23T07:02:33.248Z,99.90
2019-03-23T07:05:10.906Z,99.90
2019-03-23T07:07:48.924Z,99.90
2019-03-23T07:10:27.010Z,99.90
2019-03-23T07:13:05.950Z,99.90
2019-03-23T07:15:43.296Z,99.90
2019-03-23T07:18:20.652Z,99.90
2019-03-23T07:20:57.890Z,99.90
2019-03-23T07:23:35.223Z,99.90
2019-03-23T07:26:12.534Z,99.90
2019-03-23T07:28:49.847Z,99.90
2019-03-23T07:31:27.242Z,99.90
2019-03-23T07:34:06.171Z,99.90
2019-03-23T07:36:43.654Z,99.90
2019-03-23T07:39:27.278Z,99.90
2019-03-23T07:42:00.225Z,99.90
2019-03-23T07:44:37.569Z,99.90
2019-03-23T07:47:15.450Z,99.90
2019-03-23T07:49:52.840Z,99.90
2019-03-23T07:52:30.271Z,98.80
2019-03-23T07:55:12.913Z,96.70
2019-03-23T07:57:50.296Z,95.40
2019-03-23T08:00:31.232Z,95.00
2019-03-23T08:03:10.822Z,93.50
2019-03-23T08:05:48.242Z,92.40
2019-03-23T08:08:25.652Z,91.30
2019-03-23T08:11:03.031Z,89.10
2019-03-23T08:13:40.807Z,89.50
2019-03-23T08:16:18.732Z,87.50
2019-03-23T08:18:56.612Z,85.00
2019-03-23T08:21:34.525Z,81.10
2019-03-23T08:24:12.434Z,83.30
2019-03-23T08:26:50.336Z,80.30
2019-03-23T08:29:28.214Z,80.80
2019-03-23T08:32:06.052Z,75.90
2019-03-23T08:34:43.964Z,77.70
2019-03-23T08:37:21.790Z,75.80
2019-03-23T08:39:59.633Z,77.30
2019-03-23T08:42:37.619Z,76.60
2019-03-23T08:45:15.702Z,75.00
2019-03-23T08:47:53.815Z,74.70
2019-03-23T08:50:31.744Z,74.50
2019-03-23T08:53:09.713Z,74.60
2019-03-23T08:55:47.607Z,70.90
2019-03-23T08:58:30.380Z,72.40
2019-03-23T09:01:08.170Z,72.60
2019-03-23T09:03:52.432Z,71.20
2019-03-23T09:06:25.615Z,73.10
2019-03-23T09:09:04.984Z,72.90
2019-03-23T09:11:42.773Z,72.30
2019-03-23T09:14:20.614Z,75.70
2019-03-23T09:16:58.519Z,76.90
2019-03-23T09:19:36.411Z,76.60
2019-03-23T09:22:18.283Z,77.70
2019-03-23T09:24:57.260Z,78.30
2019-03-23T09:27:35.228Z,77.40
2019-03-23T09:30:13.337Z,77.70
2019-03-23T09:32:51.087Z,79.10
2019-03-23T09:35:29.035Z,79.60
2019-03-23T09:38:06.929Z,80.20
2019-03-23T09:40:44.844Z,80.90
2019-03-23T09:43:22.679Z,79.70
2019-03-23T09:46:00.611Z,81.40
2019-03-23T09:48:38.465Z,81.60
2019-03-23T09:51:16.378Z,78.80
2019-03-23T09:53:54.253Z,78.50
2019-03-23T09:56:32.604Z,77.50
2019-03-23T09:59:10.462Z,79.90
2019-03-23T10:01:48.318Z,78.70
2019-03-23T10:04:26.204Z,77.20
2019-03-23T10:07:03.994Z,77.80
2019-03-23T10:09:41.896Z,77.50
2019-03-23T10:12:19.844Z,78.40
2019-03-23T10:14:57.612Z,77.80
2019-03-23T10:17:35.637Z,80.80
2019-03-23T10:20:13.448Z,78.00
2019-03-23T10:22:51.355Z,77.50
2019-03-23T10:25:29.310Z,76.40
2019-03-23T10:28:07.212Z,78.00
2019-03-23T10:30:45.114Z,77.80
2019-03-23T10:33:33.601Z,76.60
2019-03-23T10:36:12.346Z,76.40
2019-03-23T10:38:50.320Z,75.70
2019-03-23T10:41:28.109Z,75.30
2019-03-23T10:44:06.107Z,75.50
2019-03-23T10:46:43.959Z,74.40
2019-03-23T10:49:24.066Z,75.60
2019-03-23T10:52:03.546Z,73.30
2019-03-23T10:54:41.472Z,74.60
2019-03-23T10:57:19.346Z,73.30
2019-03-23T10:59:57.508Z,74.20
2019-03-23T11:02:36.333Z,73.10
2019-03-23T11:05:17.678Z,71.40
2019-03-23T11:07:58.185Z,72.40
2019-03-23T11:10:42.177Z,71.90
2019-03-23T11:13:21.216Z,71.40
2019-03-23T11:16:12.601Z,71.40
2019-03-23T11:18:53.305Z,70.10
2019-03-23T11:21:31.157Z,69.30
2019-03-23T11:24:09.113Z,67.30
2019-03-23T11:26:46.966Z,66.90
2019-03-23T11:29:27.245Z,65.40
2019-03-23T11:32:05.175Z,66.30
2019-03-23T11:34:43.126Z,67.80
2019-03-23T11:37:21.076Z,67.30
2019-03-23T11:39:59.073Z,66.80
2019-03-23T11:42:37.333Z,65.70
2019-03-23T11:45:15.261Z,67.10
2019-03-23T11:47:53.043Z,67.10
2019-03-23T11:50:30.996Z,68.40
2019-03-23T11:53:08.712Z,66.10
2019-03-23T11:55:46.660Z,66.70
2019-03-23T11:58:24.554Z,66.70
2019-03-23T12:01:02.481Z,64.50
2019-03-23T12:03:40.307Z,64.90
2019-03-23T12:06:18.429Z,65.40
2019-03-23T12:08:56.106Z,63.90
2019-03-23T12:11:34.037Z,60.50
2019-03-23T12:14:11.785Z,60.00
2019-03-23T12:16:49.731Z,63.20
2019-03-23T12:19:27.594Z,64.80
2019-03-23T12:22:06.613Z,64.60
2019-03-23T12:24:44.520Z,62.70
2019-03-23T12:27:24.683Z,63.00
2019-03-23T12:30:07.004Z,59.60
2019-03-23T12:32:41.429Z,60.10
2019-03-23T12:35:19.276Z,60.00
2019-03-23T12:37:57.212Z,59.60
2019-03-23T12:40:36.487Z,59.50
2019-03-23T12:43:14.625Z,58.50
2019-03-23T12:45:52.525Z,56.80
2019-03-23T12:48:30.349Z,57.20
2019-03-23T12:51:08.282Z,56.10
2019-03-23T12:53:46.161Z,54.90
2019-03-23T12:56:24.104Z,55.00
2019-03-23T12:59:01.994Z,57.10
2019-03-23T13:01:39.854Z,57.60
2019-03-23T13:04:17.719Z,57.10
2019-03-23T13:06:55.516Z,57.80
2019-03-23T13:09:33.347Z,56.80
2019-03-23T13:12:11.257Z,56.80
2019-03-23T13:14:49.085Z,56.40
2019-03-23T13:17:26.884Z,55.80
2019-03-23T13:20:05.440Z,55.80
2019-03-23T13:22:43.374Z,56.50
2019-03-23T13:25:20.985Z,55.90
2019-03-23T13:27:58.843Z,55.50
2019-03-23T13:30:36.705Z,55.20
2019-03-23T13:33:14.487Z,55.30
2019-03-23T13:35:52.398Z,53.40
2019-03-23T13:38:30.360Z,53.50
2019-03-23T13:41:08.300Z,54.90
2019-03-23T13:43:46.378Z,55.20
2019-03-23T13:46:24.155Z,55.10
2019-03-23T13:49:02.019Z,56.80
2019-03-23T13:51:39.781Z,56.60
2019-03-23T13:54:17.710Z,56.70
2019-03-23T13:56:55.531Z,55.30
2019-03-23T13:59:33.482Z,54.10
2019-03-23T14:02:11.379Z,55.30
2019-03-23T14:04:50.292Z,54.50
2019-03-23T14:07:28.263Z,54.90
2019-03-23T14:10:06.242Z,54.60
2019-03-23T14:12:44.150Z,53.80
2019-03-23T14:15:22.072Z,54.80
2019-03-23T14:17:59.963Z,56.00
2019-03-23T14:20:38.816Z,54.00
2019-03-23T14:23:16.688Z,53.50
2019-03-23T14:25:54.683Z,53.90
2019-03-23T14:28:32.585Z,53.80
2019-03-23T14:31:10.571Z,54.00
2019-03-23T14:33:48.739Z,54.90
2019-03-23T14:36:27.929Z,54.90
2019-03-23T14:39:07.625Z,54.10
2019-03-23T14:41:46.353Z,55.00
2019-03-23T14:44:24.191Z,55.10
2019-03-23T14:47:03.088Z,55.30
2019-03-23T14:49:40.921Z,55.40
2019-03-23T14:52:18.837Z,54.30
2019-03-23T14:54:56.708Z,54.80
2019-03-23T14:57:34.590Z,56.00
2019-03-23T15:00:12.882Z,55.40
2019-03-23T15:02:50.833Z,55.70
2019-03-23T15:05:28.796Z,55.60
2019-03-23T15:08:10.039Z,55.00
2019-03-23T15:10:53.208Z,56.10
2019-03-23T15:13:31.153Z,56.20
2019-03-23T15:16:09.136Z,55.50
2019-03-23T15:18:47.049Z,54.50
2019-03-23T15:21:24.957Z,56.60
2019-03-23T15:24:02.844Z,56.00
2019-03-23T15:26:40.731Z,56.60
2019-03-23T15:29:18.610Z,57.40
2019-03-23T15:31:56.488Z,57.00
2019-03-23T15:34:34.175Z,56.30
2019-03-23T15:39:53.672Z,57.40
2019-03-23T15:42:31.636Z,56.80
2019-03-23T15:45:09.964Z,56.80
2019-03-23T15:47:48.055Z,57.20
2019-03-23T15:50:26.032Z,56.80
2019-03-23T15:53:04.102Z,57.30
2019-03-23T15:55:41.997Z,57.10
2019-03-23T15:58:19.785Z,57.50
2019-03-23T16:00:57.950Z,58.30
2019-03-23T16:03:35.829Z,58.10
2019-03-23T16:06:13.629Z,58.60
2019-03-23T16:08:51.169Z,58.80
2019-03-23T16:11:29.048Z,58.50
2019-03-23T16:14:06.950Z,59.90
2019-03-23T16:16:44.909Z,60.50
2019-03-23T16:19:22.767Z,60.80
2019-03-23T16:22:00.664Z,60.90
2019-03-23T16:24:38.602Z,61.40
2019-03-23T16:27:16.484Z,62.70
2019-03-23T16:29:54.405Z,63.30
2019-03-23T16:32:32.157Z,63.80
2019-03-23T16:35:10.092Z,63.90
2019-03-23T16:37:48.176Z,64.80
2019-03-23T16:40:26.520Z,65.10
2019-03-23T16:43:06.267Z,65.20
2019-03-23T16:45:46.459Z,65.70
2019-03-23T16:48:24.432Z,66.60
2019-03-23T16:51:09.851Z,67.70
2019-03-23T16:53:47.706Z,67.50
2019-03-23T16:56:25.686Z,68.30
2019-03-23T16:59:03.543Z,68.90
2019-03-23T17:01:41.464Z,69.10
2019-03-23T17:04:19.769Z,69.80
2019-03-23T17:06:57.698Z,70.20
2019-03-23T17:09:35.488Z,70.80
2019-03-23T17:12:13.416Z,71.00
2019-03-23T17:14:51.231Z,71.70
2019-03-23T17:17:29.165Z,72.10
2019-03-23T17:20:06.960Z,72.40
2019-03-23T17:22:44.845Z,73.80
2019-03-23T17:25:22.765Z,73.40
2019-03-23T17:28:00.758Z,73.80
2019-03-23T17:30:38.762Z,74.10
2019-03-23T17:33:17.142Z,74.50
2019-03-23T17:35:58.663Z,75.00
2019-03-23T17:38:36.550Z,75.50
2019-03-23T17:41:14.519Z,76.10
2019-03-23T17:43:52.462Z,76.30
2019-03-23T17:46:30.364Z,76.30
2019-03-23T17:49:08.329Z,76.30
2019-03-23T17:51:46.244Z,77.20
2019-03-23T17:54:24.169Z,77.80
2019-03-23T17:57:02.093Z,78.60
2019-03-23T17:59:39.997Z,78.90
2019-03-23T18:02:17.318Z,79.40
2019-03-23T18:04:55.261Z,80.00
2019-03-23T18:07:33.129Z,80.10
2019-03-23T18:10:11.135Z,80.60
2019-03-23T18:12:48.493Z,81.40
2019-03-23T18:15:28.730Z,82.50
2019-03-23T18:18:06.598Z,82.40
2019-03-23T18:20:43.967Z,82.50
2019-03-23T18:23:21.403Z,83.80
2019-03-23T18:25:58.754Z,84.20
2019-03-23T18:28:36.925Z,85.70
2019-03-23T18:31:14.293Z,85.10
2019-03-23T18:33:51.611Z,86.70
2019-03-23T18:36:29.129Z,85.70
2019-03-23T18:39:06.428Z,88.10
2019-03-23T18:41:43.717Z,86.80
2019-03-23T18:44:21.063Z,86.50
2019-03-23T18:46:58.478Z,87.70
2019-03-23T18:49:35.690Z,87.50
2019-03-23T18:52:13.038Z,88.70
2019-03-23T18:54:50.442Z,88.10
2019-03-23T18:57:29.453Z,88.40
2019-03-23T19:00:07.555Z,88.50
2019-03-23T19:02:44.940Z,88.20
2019-03-23T19:05:23.881Z,89.50
2019-03-23T19:08:01.217Z,90.10
2019-03-23T19:10:38.539Z,89.50
2019-03-23T19:13:15.763Z,89.30
2019-03-23T19:15:53.063Z,89.50
2019-03-23T19:18:30.397Z,90.10
2019-03-23T19:21:10.340Z,90.00
2019-03-23T19:23:47.671Z,90.00
2019-03-23T19:26:25.009Z,90.00
2019-03-23T19:29:02.368Z,90.20
2019-03-23T19:31:39.649Z,89.90
2019-03-23T19:34:16.999Z,88.40
2019-03-23T19:36:54.219Z,86.10
2019-03-23T19:39:31.800Z,85.10
2019-03-23T19:42:16.133Z,85.30
2019-03-23T19:44:53.485Z,85.60
2019-03-23T19:47:30.848Z,85.90
2019-03-23T19:50:09.741Z,86.80
2019-03-23T19:52:50.818Z,87.30
2019-03-23T19:55:28.119Z,88.50
2019-03-23T19:58:05.465Z,89.50
2019-03-23T20:00:43.909Z,89.60
2019-03-23T20:03:21.163Z,90.10
2019-03-23T20:05:58.659Z,90.60
2019-03-23T20:08:36.226Z,90.50
2019-03-23T20:11:13.637Z,90.80
2019-03-23T20:13:58.488Z,91.20
2019-03-23T20:16:30.042Z,91.50
2019-03-23T20:19:07.418Z,91.70
2019-03-23T20:21:44.998Z,92.50
2019-03-23T20:24:22.564Z,93.00
2019-03-23T20:27:00.029Z,92.70
2019-03-23T20:29:37.354Z,91.90
2019-03-23T20:32:14.641Z,88.70
2019-03-23T20:34:52.009Z,85.50
2019-03-23T20:37:29.323Z,86.20
2019-03-23T20:40:07.170Z,87.20
2019-03-23T20:42:44.537Z,87.80
2019-03-23T20:45:27.093Z,88.90
2019-03-23T20:48:04.442Z,89.80
2019-03-23T20:50:41.871Z,90.10
2019-03-23T20:53:19.243Z,90.50
2019-03-23T20:55:56.472Z,91.10
2019-03-23T20:58:33.724Z,91.60
2019-03-23T21:01:11.065Z,91.60
2019-03-23T21:03:52.185Z,91.90
2019-03-23T21:06:29.497Z,92.30
2019-03-23T21:09:07.628Z,92.60
2019-03-23T21:11:44.960Z,92.90
2019-03-23T21:14:22.373Z,93.20
2019-03-23T21:16:59.793Z,93.30
2019-03-23T21:19:38.171Z,93.50
2019-03-23T21:22:15.546Z,93.80
2019-03-23T21:24:52.896Z,93.90
2019-03-23T21:27:30.084Z,94.10
2019-03-23T21:30:13.283Z,94.20
2019-03-23T21:32:50.574Z,94.40
2019-03-23T21:35:28.008Z,94.90
2019-03-23T21:38:05.300Z,94.60
2019-03-23T21:40:42.663Z,94.70
2019-03-23T21:43:19.993Z,94.90
2019-03-23T21:45:57.278Z,95.00
2019-03-23T21:48:35.938Z,95.10
2019-03-23T21:51:13.157Z,95.30
2019-03-23T21:53:50.473Z,95.30
2019-03-23T21:56:27.819Z,95.30
2019-03-23T21:59:05.094Z,95.50
2019-03-23T22:01:42.383Z,95.60
2019-03-23T22:04:19.707Z,95.70
2019-03-23T22:06:57.359Z,95.80
2019-03-23T22:09:34.956Z,96.00
2019-03-23T22:12:12.809Z,96.10
2019-03-23T22:14:50.198Z,96.20
2019-03-23T22:17:27.612Z,96.30
2019-03-23T22:20:08.261Z,96.40
2019-03-23T22:22:45.548Z,96.50
2019-03-23T22:25:22.805Z,96.50
2019-03-23T22:28:00.165Z,96.60
2019-03-23T22:30:37.508Z,96.60
2019-03-23T22:33:14.950Z,96.60
2019-03-23T22:35:52.276Z,96.70
2019-03-23T22:38:29.763Z,96.80
2019-03-23T22:41:07.082Z,96.90
2019-03-23T22:43:44.461Z,97.30
2019-03-23T22:46:21.796Z,96.90
2019-03-23T22:48:58.980Z,97.00
2019-03-23T22:51:36.248Z,96.90
2019-03-23T22:54:13.619Z,96.90
2019-03-23T22:56:50.812Z,96.80
2019-03-23T22:59:28.077Z,97.00
2019-03-23T23:02:05.491Z,97.30
2019-03-23T23:04:42.875Z,97.60
2019-03-23T23:07:21.112Z,97.70
2019-03-23T23:09:58.284Z,98.00
2019-03-23T23:12:35.644Z,98.10
2019-03-23T23:15:12.937Z,98.30
2019-03-23T23:17:50.293Z,98.40
2019-03-23T23:20:27.603Z,98.50
2019-03-23T23:23:05.234Z,98.60
2019-03-23T23:25:43.136Z,98.70
2019-03-23T23:28:20.500Z,98.90
2019-03-23T23:30:57.713Z,99.00
2019-03-23T23:33:35.039Z,99.00
2019-03-23T23:36:12.338Z,98.90
2019-03-23T23:38:49.770Z,98.80
2019-03-23T23:41:26.969Z,98.70
2019-03-23T23:44:04.567Z,98.70
2019-03-23T23:46:41.841Z,98.60
2019-03-23T23:49:19.171Z,98.60
2019-03-23T23:51:56.416Z,98.60
2019-03-23T23:54:33.777Z,98.60
2019-03-23T23:57:11.057Z,98.60
2019-03-23T23:59:48.307Z,98.70
